createdAt,value
2022-11-28T00:02:27.248Z,69.20
2022-11-28T00:04:54.512Z,69.10
2022-11-28T00:07:21.768Z,69.30
2022-11-28T00:09:52.423Z,69.30
2022-11-28T00:12:19.712Z,69.50
2022-11-28T00:14:46.879Z,69.50
2022-11-28T00:17:14.123Z,69.40
2022-11-28T00:19:41.338Z,69.50
2022-11-28T00:22:08.445Z,69.50
2022-11-28T00:24:35.545Z,69.50
2022-11-28T00:27:02.941Z,69.40
2022-11-28T00:29:30.262Z,69.40
2022-11-28T00:31:57.418Z,69.40
2022-11-28T00:34:24.638Z,69.40
2022-11-28T00:36:52.989Z,69.40
2022-11-28T00:39:20.209Z,69.40
2022-11-28T00:41:47.417Z,69.20
2022-11-28T00:44:14.654Z,69.30
2022-11-28T00:46:42.014Z,69.10
2022-11-28T00:49:09.261Z,68.90
2022-11-28T00:51:36.543Z,68.70
2022-11-28T00:54:06.388Z,68.70
2022-11-28T00:56:36.394Z,68.60
2022-11-28T00:59:04.059Z,68.40
2022-11-28T01:01:38.489Z,68.60
2022-11-28T01:04:08.248Z,68.40
2022-11-28T01:06:44.553Z,68.30
2022-11-28T01:09:22.728Z,68.20
2022-11-28T01:11:51.324Z,68.40
2022-11-28T01:14:23.261Z,68.30
2022-11-28T01:16:50.438Z,68.10
2022-11-28T01:19:17.702Z,68.30
2022-11-28T01:21:44.890Z,68.20
2022-11-28T01:24:12.219Z,68.20
2022-11-28T01:26:40.212Z,68.20
2022-11-28T01:29:07.722Z,68.10
2022-11-28T01:31:34.946Z,68.00
2022-11-28T01:34:02.085Z,68.10
2022-11-28T01:36:29.310Z,68.00
2022-11-28T01:38:56.577Z,68.10
2022-11-28T01:41:25.843Z,68.10
2022-11-28T01:44:16.191Z,68.00
2022-11-28T01:46:43.504Z,67.80
2022-11-28T01:49:33.456Z,67.80
2022-11-28T01:52:04.985Z,67.50
2022-11-28T01:54:32.309Z,67.70
2022-11-28T01:57:07.843Z,67.90
2022-11-28T01:59:39.540Z,67.90
2022-11-28T02:02:13.378Z,67.80
2022-11-28T02:04:40.866Z,67.80
2022-11-28T02:07:08.163Z,68.00
2022-11-28T02:09:35.309Z,68.00
2022-11-28T02:12:45.383Z,67.90
2022-11-28T02:15:40.263Z,67.80
2022-11-28T02:18:32.081Z,67.90
2022-11-28T02:21:32.346Z,68.10
2022-11-28T02:24:40.671Z,67.90
2022-11-28T02:28:03.277Z,68.00
2022-11-28T02:31:33.608Z,67.90
2022-11-28T02:34:04.707Z,67.90
2022-11-28T02:36:40.235Z,68.00
2022-11-28T02:39:27.756Z,67.90
2022-11-28T02:42:20.527Z,67.80
2022-11-28T02:45:08.537Z,67.50
2022-11-28T02:47:43.785Z,67.80
2022-11-28T02:50:32.577Z,67.90
2022-11-28T02:53:26.270Z,68.00
2022-11-28T02:55:53.435Z,67.90
2022-11-28T02:58:20.558Z,67.80
2022-11-28T03:00:48.518Z,67.80
2022-11-28T03:03:27.506Z,67.80
2022-11-28T03:06:45.550Z,67.70
2022-11-28T03:09:34.602Z,67.30
2022-11-28T03:12:47.320Z,67.70
2022-11-28T03:15:15.025Z,68.00
2022-11-28T03:18:04.728Z,68.30
2022-11-28T03:21:30.641Z,68.30
2022-11-28T03:24:24.914Z,68.40
2022-11-28T03:27:03.118Z,68.50
2022-11-28T03:29:37.143Z,68.40
2022-11-28T03:32:11.960Z,68.50
2022-11-28T03:34:41.441Z,68.70
2022-11-28T03:37:11.802Z,68.80
2022-11-28T03:39:41.518Z,68.70
2022-11-28T03:42:17.061Z,68.40
2022-11-28T03:44:57.888Z,68.60
2022-11-28T03:47:26.703Z,68.80
2022-11-28T03:49:54.711Z,69.00
2022-11-28T03:52:31.471Z,68.90
2022-11-28T03:55:23.344Z,69.00
2022-11-28T03:58:06.127Z,69.10
2022-11-28T04:00:36.523Z,69.20
2022-11-28T04:03:21.258Z,69.20
2022-11-28T04:06:02.137Z,69.30
2022-11-28T04:08:37.866Z,69.20
2022-11-28T04:11:12.659Z,69.10
2022-11-28T04:14:04.261Z,69.30
2022-11-28T04:16:41.936Z,69.20
2022-11-28T04:19:51.066Z,69.20
2022-11-28T04:22:27.307Z,69.20
2022-11-28T04:24:58.016Z,69.50
2022-11-28T04:27:31.457Z,69.30
2022-11-28T04:30:01.725Z,69.30
2022-11-28T04:32:29.576Z,69.40
2022-11-28T04:35:18.290Z,69.50
2022-11-28T04:37:48.612Z,69.30
2022-11-28T04:40:15.754Z,69.30
2022-11-28T04:42:52.842Z,69.30
2022-11-28T04:45:33.518Z,69.20
2022-11-28T04:48:00.810Z,69.40
2022-11-28T04:50:55.900Z,69.50
2022-11-28T04:53:34.560Z,69.50
2022-11-28T04:56:16.848Z,69.70
2022-11-28T04:58:45.874Z,69.90
2022-11-28T05:01:19.201Z,70.10
2022-11-28T05:03:46.413Z,70.00
2022-11-28T05:06:26.876Z,69.90
2022-11-28T05:08:54.093Z,70.20
2022-11-28T05:11:21.309Z,70.30
2022-11-28T05:13:48.473Z,70.80
2022-11-28T05:16:16.005Z,70.80
2022-11-28T05:18:44.016Z,70.80
2022-11-28T05:21:11.333Z,71.00
2022-11-28T05:23:43.248Z,70.80
2022-11-28T05:26:21.268Z,70.70
2022-11-28T05:28:50.121Z,70.50
2022-11-28T05:31:19.105Z,70.50
2022-11-28T05:33:46.409Z,70.40
2022-11-28T05:36:13.928Z,70.40
2022-11-28T05:38:41.596Z,70.30
2022-11-28T05:41:08.890Z,70.40
2022-11-28T05:43:36.130Z,70.60
2022-11-28T05:46:08.004Z,70.40
2022-11-28T05:48:35.759Z,70.40
2022-11-28T05:51:05.165Z,70.50
2022-11-28T05:53:32.417Z,70.40
2022-11-28T05:55:59.708Z,70.40
2022-11-28T05:58:27.229Z,70.50
2022-11-28T06:00:54.306Z,70.50
2022-11-28T06:03:21.461Z,70.60
2022-11-28T06:05:48.720Z,70.60
2022-11-28T06:08:16.954Z,70.50
2022-11-28T06:10:44.150Z,70.60
2022-11-28T06:13:11.322Z,70.40
2022-11-28T06:15:38.760Z,70.70
2022-11-28T06:18:08.104Z,70.90
2022-11-28T06:20:35.817Z,70.60
2022-11-28T06:23:02.991Z,70.80
2022-11-28T06:25:30.329Z,71.20
2022-11-28T06:27:57.486Z,71.00
2022-11-28T06:30:24.643Z,70.90
2022-11-28T06:32:51.766Z,70.60
2022-11-28T06:35:18.960Z,70.30
2022-11-28T06:37:46.084Z,70.50
2022-11-28T06:40:13.783Z,70.70
2022-11-28T06:42:40.913Z,70.50
2022-11-28T06:45:11.596Z,70.30
2022-11-28T06:47:38.853Z,70.40
2022-11-28T06:50:08.878Z,70.30
2022-11-28T06:52:36.446Z,70.30
2022-11-28T06:55:03.705Z,70.60
2022-11-28T06:57:32.698Z,70.30
2022-11-28T06:59:59.854Z,70.30
2022-11-28T07:02:27.612Z,70.40
2022-11-28T07:04:54.886Z,70.40
2022-11-28T07:07:22.172Z,70.40
2022-11-28T07:09:50.426Z,70.20
2022-11-28T07:12:17.839Z,70.10
2022-11-28T07:14:48.110Z,70.10
2022-11-28T07:17:15.249Z,69.90
2022-11-28T07:19:42.649Z,69.90
2022-11-28T07:22:11.737Z,69.70
2022-11-28T07:24:38.876Z,69.70
2022-11-28T07:27:05.994Z,69.70
2022-11-28T07:29:36.596Z,69.90
2022-11-28T07:32:05.957Z,70.00
2022-11-28T07:34:33.298Z,69.80
2022-11-28T07:37:00.447Z,70.00
2022-11-28T07:39:27.626Z,69.90
2022-11-28T07:41:54.980Z,70.00
2022-11-28T07:44:22.581Z,69.90
2022-11-28T07:46:49.786Z,69.80
2022-11-28T07:49:17.091Z,69.60
2022-11-28T07:51:44.379Z,69.40
2022-11-28T07:54:11.528Z,69.30
2022-11-28T07:57:10.786Z,69.30
2022-11-28T07:59:26.039Z,69.20
2022-11-28T08:01:53.941Z,69.20
2022-11-28T08:04:21.517Z,69.10
2022-11-28T08:06:48.686Z,69.20
2022-11-28T08:09:15.839Z,69.20
2022-11-28T08:11:43.151Z,69.20
2022-11-28T08:14:10.534Z,69.80
2022-11-28T08:16:41.194Z,70.00
2022-11-28T08:19:08.454Z,69.80
2022-11-28T08:21:35.593Z,69.70
2022-11-28T08:24:04.136Z,69.20
2022-11-28T08:26:32.961Z,68.70
2022-11-28T08:29:01.445Z,68.30
2022-11-28T08:31:34.338Z,67.70
2022-11-28T08:34:03.410Z,66.00
2022-11-28T08:36:30.613Z,66.30
2022-11-28T08:39:22.289Z,66.20
2022-11-28T08:41:47.620Z,66.40
2022-11-28T08:44:14.791Z,65.80
2022-11-28T08:46:41.937Z,65.50
2022-11-28T08:49:09.068Z,64.90
2022-11-28T08:51:36.240Z,65.70
2022-11-28T08:54:05.902Z,64.90
2022-11-28T08:56:33.057Z,65.30
2022-11-28T08:59:00.250Z,65.00
2022-11-28T09:01:27.419Z,64.80
2022-11-28T09:03:55.275Z,65.40
2022-11-28T09:06:22.919Z,64.40
2022-11-28T09:08:50.386Z,65.00
2022-11-28T09:11:19.065Z,64.70
2022-11-28T09:13:46.348Z,64.60
2022-11-28T09:16:14.369Z,64.40
2022-11-28T09:18:41.644Z,64.10
2022-11-28T09:21:10.504Z,64.50
2022-11-28T09:23:38.643Z,64.50
2022-11-28T09:26:20.244Z,64.40
2022-11-28T09:28:47.596Z,64.60
2022-11-28T09:31:15.940Z,64.80
2022-11-28T09:33:44.537Z,64.70
2022-11-28T09:36:20.867Z,64.30
2022-11-28T09:38:48.226Z,64.80
2022-11-28T09:42:03.796Z,64.90
2022-11-28T09:44:41.917Z,64.40
2022-11-28T09:47:28.234Z,64.80
2022-11-28T09:50:10.467Z,65.00
2022-11-28T09:52:46.603Z,65.10
2022-11-28T09:55:29.659Z,64.90
2022-11-28T09:57:56.964Z,65.20
2022-11-28T10:00:35.132Z,65.00
2022-11-28T10:03:26.172Z,64.70
2022-11-28T10:06:28.884Z,64.80
2022-11-28T10:09:38.596Z,64.80
2022-11-28T10:12:24.703Z,64.50
2022-11-28T10:15:22.668Z,64.40
2022-11-28T10:18:01.683Z,64.00
2022-11-28T10:20:41.840Z,64.10
2022-11-28T10:23:38.287Z,64.00
2022-11-28T10:26:39.159Z,63.30
2022-11-28T10:29:52.013Z,62.80
2022-11-28T10:32:21.345Z,62.80
2022-11-28T10:35:17.394Z,63.30
2022-11-28T10:37:54.645Z,62.90
2022-11-28T10:40:54.543Z,62.90
2022-11-28T10:43:48.725Z,62.10
2022-11-28T10:46:33.003Z,62.20
2022-11-28T10:49:46.511Z,62.50
2022-11-28T10:52:32.247Z,62.70
2022-11-28T10:55:38.614Z,62.00
2022-11-28T10:58:27.784Z,61.40
2022-11-28T11:00:55.595Z,62.00
2022-11-28T11:03:31.456Z,61.60
2022-11-28T11:05:59.711Z,61.40
2022-11-28T11:08:29.074Z,62.00
2022-11-28T11:11:47.984Z,62.10
2022-11-28T11:14:15.107Z,62.00
2022-11-28T11:16:56.918Z,62.20
2022-11-28T11:19:43.325Z,61.30
2022-11-28T11:22:31.953Z,61.00
2022-11-28T11:25:22.023Z,61.10
2022-11-28T11:28:00.678Z,61.30
2022-11-28T11:30:35.622Z,61.30
2022-11-28T11:33:07.259Z,61.30
2022-11-28T11:35:45.499Z,61.00
2022-11-28T11:38:25.674Z,61.10
2022-11-28T11:40:52.939Z,61.80
2022-11-28T11:43:46.472Z,61.20
2022-11-28T11:46:17.783Z,61.10
2022-11-28T11:48:47.195Z,61.40
2022-11-28T11:51:29.021Z,61.40
2022-11-28T11:54:06.115Z,61.00
2022-11-28T11:56:37.950Z,61.40
2022-11-28T11:59:15.814Z,61.60
2022-11-28T12:01:44.291Z,61.50
2022-11-28T12:04:43.919Z,61.20
2022-11-28T12:07:09.632Z,61.10
2022-11-28T12:09:45.577Z,61.10
2022-11-28T12:12:37.827Z,61.50
2022-11-28T12:15:35.037Z,61.40
2022-11-28T12:18:26.233Z,61.10
2022-11-28T12:21:13.836Z,61.10
2022-11-28T12:24:06.351Z,61.30
2022-11-28T12:27:15.753Z,61.30
2022-11-28T12:30:17.553Z,61.30
2022-11-28T12:32:51.678Z,61.40
2022-11-28T12:35:41.355Z,61.40
2022-11-28T12:38:23.591Z,61.40
2022-11-28T12:41:41.177Z,61.30
2022-11-28T12:45:04.689Z,60.90
2022-11-28T12:48:05.121Z,60.60
2022-11-28T12:50:47.933Z,60.40
2022-11-28T12:54:03.117Z,60.50
2022-11-28T12:56:59.861Z,60.20
2022-11-28T13:00:04.999Z,60.50
2022-11-28T13:02:50.357Z,59.80
2022-11-28T13:05:38.128Z,60.20
2022-11-28T13:08:48.473Z,60.00
2022-11-28T13:12:03.776Z,59.80
2022-11-28T13:14:38.673Z,59.80
2022-11-28T13:17:39.146Z,59.80
2022-11-28T13:20:33.081Z,59.70
2022-11-28T13:23:22.017Z,59.60
2022-11-28T13:26:21.673Z,59.40
2022-11-28T13:29:25.173Z,58.80
2022-11-28T13:32:23.279Z,58.60
2022-11-28T13:34:50.694Z,59.10
2022-11-28T13:40:41.227Z,58.90
2022-11-28T13:43:39.456Z,59.30
2022-11-28T13:46:09.807Z,59.20
2022-11-28T13:51:31.128Z,58.90
2022-11-28T13:54:18.032Z,59.00
2022-11-28T13:57:27.079Z,58.60
2022-11-28T14:00:02.308Z,59.00
2022-11-28T14:02:51.436Z,59.20
2022-11-28T14:05:34.638Z,59.30
2022-11-28T14:08:02.576Z,58.50
2022-11-28T14:11:28.044Z,58.70
2022-11-28T14:14:31.914Z,58.60
2022-11-28T14:17:41.334Z,58.70
2022-11-28T14:20:43.067Z,58.80
2022-11-28T14:23:42.096Z,58.80
2022-11-28T14:26:49.892Z,58.90
2022-11-28T14:29:22.462Z,59.10
2022-11-28T14:32:21.880Z,58.60
2022-11-28T14:34:50.021Z,58.80
2022-11-28T14:37:34.946Z,59.00
2022-11-28T14:40:02.298Z,59.10
2022-11-28T14:45:40.420Z,59.30
2022-11-28T14:48:22.724Z,58.80
2022-11-28T14:50:59.303Z,59.10
2022-11-28T14:53:47.097Z,59.10
2022-11-28T14:56:28.268Z,59.30
2022-11-28T14:59:02.386Z,59.30
2022-11-28T15:01:56.058Z,59.40
2022-11-28T15:04:50.448Z,59.60
2022-11-28T15:07:32.092Z,59.80
2022-11-28T15:10:41.924Z,59.50
2022-11-28T15:13:30.253Z,59.40
2022-11-28T15:16:01.968Z,59.70
2022-11-28T15:18:29.170Z,59.80
2022-11-28T15:21:04.369Z,59.90
2022-11-28T15:23:39.564Z,60.20
2022-11-28T15:26:18.999Z,60.10
2022-11-28T15:28:50.524Z,60.20
2022-11-28T15:31:32.810Z,60.10
2022-11-28T15:34:00.135Z,60.10
2022-11-28T15:36:30.970Z,60.20
2022-11-28T15:39:02.451Z,60.40
2022-11-28T15:41:32.880Z,60.30
2022-11-28T15:44:15.304Z,60.30
2022-11-28T15:46:42.555Z,60.30
2022-11-28T15:49:43.858Z,60.30
2022-11-28T15:52:17.339Z,60.20
2022-11-28T15:55:04.769Z,60.40
2022-11-28T15:57:33.417Z,60.50
2022-11-28T16:00:01.726Z,60.60
2022-11-28T16:02:38.677Z,60.70
2022-11-28T16:05:27.520Z,60.50
2022-11-28T16:07:56.618Z,60.40
2022-11-28T16:10:27.904Z,60.50
2022-11-28T16:13:04.569Z,60.60
2022-11-28T16:15:33.580Z,60.70
2022-11-28T16:18:04.135Z,60.60
2022-11-28T16:20:37.041Z,60.70
2022-11-28T16:23:32.638Z,60.50
2022-11-28T16:26:26.380Z,60.60
2022-11-28T16:29:07.929Z,60.50
2022-11-28T16:31:39.702Z,60.60
2022-11-28T16:34:13.706Z,60.60
2022-11-28T16:36:46.219Z,60.30
2022-11-28T16:39:17.309Z,60.30
2022-11-28T16:42:12.279Z,60.30
2022-11-28T16:44:39.377Z,59.80
2022-11-28T16:47:06.464Z,60.10
2022-11-28T16:50:19.090Z,60.50
2022-11-28T16:52:57.897Z,60.20
2022-11-28T16:55:36.901Z,60.30
2022-11-28T16:58:24.201Z,60.30
2022-11-28T17:01:02.783Z,60.30
2022-11-28T17:03:53.129Z,60.40
2022-11-28T17:06:39.331Z,60.50
2022-11-28T17:09:09.539Z,60.70
2022-11-28T17:11:41.744Z,60.80
2022-11-28T17:14:13.956Z,60.80
2022-11-28T17:16:45.867Z,60.80
2022-11-28T17:19:14.341Z,60.70
2022-11-28T17:21:44.354Z,60.70
2022-11-28T17:24:37.852Z,60.60
2022-11-28T17:27:11.925Z,60.50
2022-11-28T17:29:42.241Z,60.70
2022-11-28T17:32:15.535Z,60.60
2022-11-28T17:34:44.147Z,60.60
2022-11-28T17:37:11.462Z,60.80
2022-11-28T17:40:01.636Z,60.90
2022-11-28T17:42:28.808Z,61.00
2022-11-28T17:44:57.507Z,61.00
2022-11-28T17:47:25.803Z,60.90
2022-11-28T17:49:55.225Z,61.10
2022-11-28T17:52:27.808Z,61.20
2022-11-28T17:54:58.928Z,60.90
2022-11-28T17:57:32.299Z,61.10
2022-11-28T18:00:07.167Z,61.50
2022-11-28T18:03:53.130Z,61.60
2022-11-28T18:06:20.882Z,61.30
2022-11-28T18:08:49.152Z,61.50
2022-11-28T18:11:19.535Z,61.80
2022-11-28T18:13:47.825Z,61.80
2022-11-28T18:16:20.494Z,61.80
2022-11-28T18:18:48.220Z,61.70
2022-11-28T18:21:15.855Z,61.30
2022-11-28T18:23:49.006Z,61.70
2022-11-28T18:26:19.364Z,61.80
2022-11-28T18:28:49.154Z,62.20
2022-11-28T18:31:19.509Z,62.30
2022-11-28T18:33:47.138Z,62.50
2022-11-28T18:36:23.127Z,62.50
2022-11-28T18:39:09.320Z,62.50
2022-11-28T18:41:36.613Z,62.60
2022-11-28T18:44:09.908Z,62.40
2022-11-28T18:46:38.615Z,62.60
2022-11-28T18:49:05.854Z,62.60
2022-11-28T18:51:34.579Z,62.50
2022-11-28T18:54:06.048Z,62.50
2022-11-28T18:56:35.044Z,62.60
2022-11-28T18:59:47.863Z,62.70
2022-11-28T19:05:09.855Z,62.90
2022-11-28T19:07:50.153Z,63.20
2022-11-28T19:10:27.284Z,63.30
2022-11-28T19:12:55.536Z,64.10
2022-11-28T19:15:25.533Z,64.00
2022-11-28T19:17:59.391Z,63.90
2022-11-28T19:21:18.924Z,63.80
2022-11-28T19:24:03.911Z,63.80
2022-11-28T19:29:26.455Z,64.00
2022-11-28T19:31:57.544Z,64.10
2022-11-28T19:34:40.447Z,64.20
2022-11-28T19:39:49.033Z,64.30
2022-11-28T19:42:18.495Z,64.30
2022-11-28T19:45:20.006Z,64.60
2022-11-28T19:47:51.285Z,64.50
2022-11-28T19:52:59.752Z,64.70
2022-11-28T19:55:26.925Z,64.60
2022-11-28T19:57:54.187Z,64.70
2022-11-28T20:00:22.357Z,64.60
2022-11-28T20:02:50.313Z,64.60
2022-11-28T20:05:21.336Z,64.60
2022-11-28T20:07:55.506Z,64.40
2022-11-28T20:10:29.687Z,64.40
2022-11-28T20:12:57.261Z,64.60
2022-11-28T20:15:24.410Z,64.80
2022-11-28T20:17:59.372Z,64.90
2022-11-28T20:20:29.056Z,65.20
2022-11-28T20:22:57.559Z,64.90
2022-11-28T20:25:28.397Z,65.00
2022-11-28T20:27:55.568Z,65.40
2022-11-28T20:30:26.317Z,65.30
2022-11-28T20:32:59.741Z,65.30
2022-11-28T20:35:30.953Z,65.20
2022-11-28T20:37:58.805Z,65.20
2022-11-28T20:40:27.966Z,65.30
2022-11-28T20:42:55.071Z,65.20
2022-11-28T20:45:22.330Z,65.10
2022-11-28T20:47:50.084Z,65.20
2022-11-28T20:50:37.485Z,65.10
2022-11-28T20:53:22.160Z,65.40
2022-11-28T20:56:03.037Z,65.60
2022-11-28T20:58:30.506Z,65.40
2022-11-28T21:00:57.743Z,65.20
2022-11-28T21:03:25.195Z,65.30
2022-11-28T21:05:55.291Z,65.30
2022-11-28T21:08:28.831Z,65.50
2022-11-28T21:10:55.990Z,65.30
2022-11-28T21:13:23.161Z,65.50
2022-11-28T21:15:50.366Z,65.50
2022-11-28T21:18:17.570Z,65.60
2022-11-28T21:20:45.635Z,65.50
2022-11-28T21:23:13.463Z,65.50
2022-11-28T21:25:40.944Z,65.60
2022-11-28T21:28:09.148Z,66.00
2022-11-28T21:30:44.823Z,66.00
2022-11-28T21:33:12.338Z,65.90
2022-11-28T21:35:39.985Z,65.90
2022-11-28T21:38:07.378Z,66.10
2022-11-28T21:40:34.561Z,65.90
2022-11-28T21:43:01.770Z,65.90
2022-11-28T21:45:29.085Z,65.80
2022-11-28T21:47:56.351Z,65.90
2022-11-28T21:50:23.808Z,66.00
2022-11-28T21:52:51.031Z,65.90
2022-11-28T21:55:18.326Z,66.00
2022-11-28T21:57:45.950Z,66.40
2022-11-28T22:00:31.636Z,66.50
2022-11-28T22:03:09.383Z,66.50
2022-11-28T22:05:42.208Z,66.60
2022-11-28T22:08:10.752Z,66.30
2022-11-28T22:10:38.199Z,66.20
2022-11-28T22:13:06.329Z,66.20
2022-11-28T22:15:33.561Z,66.20
2022-11-28T22:18:01.210Z,66.10
2022-11-28T22:20:28.508Z,66.30
2022-11-28T22:22:58.797Z,66.40
2022-11-28T22:25:26.045Z,66.70
2022-11-28T22:27:53.500Z,66.70
2022-11-28T22:30:20.860Z,66.60
2022-11-28T22:32:48.346Z,66.50
2022-11-28T22:35:15.586Z,66.50
2022-11-28T22:37:43.122Z,66.50
2022-11-28T22:40:11.002Z,66.50
2022-11-28T22:42:38.153Z,66.30
2022-11-28T22:45:06.048Z,66.00
2022-11-28T22:47:33.334Z,66.20
2022-11-28T22:50:00.985Z,66.30
2022-11-28T22:52:29.687Z,66.40
2022-11-28T22:54:56.899Z,66.70
2022-11-28T22:57:25.320Z,66.60
2022-11-28T22:59:52.554Z,66.80
2022-11-28T23:02:19.809Z,66.60
2022-11-28T23:04:47.609Z,66.70
2022-11-28T23:07:15.906Z,66.90
2022-11-28T23:09:43.642Z,66.50
2022-11-28T23:12:14.066Z,66.70
2022-11-28T23:14:41.525Z,66.50
2022-11-28T23:17:08.715Z,66.40
2022-11-28T23:19:37.216Z,66.30
2022-11-28T23:22:04.709Z,66.20
2022-11-28T23:24:33.263Z,66.00
2022-11-28T23:27:02.683Z,65.90
2022-11-28T23:29:30.254Z,66.10
2022-11-28T23:32:00.640Z,66.20
2022-11-28T23:34:29.616Z,66.20
2022-11-28T23:36:56.743Z,66.30
2022-11-28T23:39:29.557Z,66.20
2022-11-28T23:42:04.200Z,66.40
2022-11-28T23:44:31.387Z,66.30
2022-11-28T23:46:58.505Z,66.40
2022-11-28T23:49:25.629Z,66.20
2022-11-28T23:51:52.945Z,66.40
2022-11-28T23:54:20.386Z,66.10
2022-11-28T23:56:47.496Z,66.20
2022-11-28T23:59:14.746Z,66.30
